Suttons Bay, MI

10:04 AM EST on January 25, 2015 (GMT -0500)
Charlevoix Municipal | Change Station
CLOSE
Current Station
Airport
Location: Charlevoix,
Elevation: 669 ft
Nearby Weather Stations

Elev 669 ft 45.30 °N, 85.27 °W | Updated 9 minutes ago

Partly Cloudy
Partly Cloudy
8 °F
Feels Like -6 °F
N
9
Wind Variable Wind from ENE

Today
High -- | Low -- °F
--% Chance of Precip.
Yesterday
High -- | Low -- °F
Precip. -- in
8:09 AM 5:40 PM
Waxing Crescent, 33% visible
Pressure 30.03 in
Visibility 10.0 miles
Clouds Clear
Windchill -6 °F
Dew Point 0 °F
Humidity 72%
Rainfall 0.00 in
Snow Depth Not available.
UV 1 out of 12
Pollen .10 out of 12
Air Quality Not available.
Flu Activity Not available.
METAR KCVX 251455Z AUTO 07008KT 10SM CLR M13/M17 A3003 RMK AO2 T11351175

More Conditions Fewer Conditions

Pressure 30.03 in
Visibility 10.0 miles
Clouds Clear
Windchill -6 °F
Dew Point 0 °F
Humidity 72%
Rainfall 0.00 in
Snow Depth Not available.
UV 1 out of 12
Pollen .10 out of 12
Air Quality Not available.
Flu Activity Not available.
METAR KCVX 251455Z AUTO 07008KT 10SM CLR M13/M17 A3003 RMK AO2 T11351175

More Conditions Fewer Conditions

Nowcast | as of 10:00 am EST on January 25, 2015

At 11 am...mostly clear. Temperature 13. Northeast winds 10 mph. Wind chill zero. At 1 PM...mostly clear. Temperature 15. Northeast winds 9 mph. At 3 PM...mostly clear. Temperature 16. Northeast winds 9 mph. At 5 PM...mostly clear. Temperature 16. Northeast winds 9 mph.

×

10-Day Weather Forecast

Almanac

Astronomy

Jan. 25, 2015 Rise Set
Actual Time
Civil Twilight
Nautical Twilight
Astronomical Twilight
Moon
Length of Visible Light
Length of Day
Tomorrow will be .
, % of the Moon is Illuminated

Today's Extremes

State Highs State Lows

Community

WunderPhotos

Upload Photos

1,789,909 photos uploaded!

WunderBlogs® & News

Nearby

Air Quality

  Air Quality AQ Index Pollutant
Not available.

Snow Depth

Station Depth Elevation

Earthquake Activity

City Distance Mag. Time & Date
Minimum magnitude displayed is 2.5.

Coastal Water Temperatures

Place Temperature

Nearby Weather Stations